sensor_id;sensor_type;location;lat;lon;timestamp;temperature;humidity
69382;DHT22;56560;50.692;12.844;2023-01-24T00:00:39;0.60;89.00
69382;DHT22;56560;50.692;12.844;2023-01-24T00:03:05;0.70;88.70
69382;DHT22;56560;50.692;12.844;2023-01-24T00:05:35;0.60;88.20
69382;DHT22;56560;50.692;12.844;2023-01-24T00:08:01;0.60;88.70
69382;DHT22;56560;50.692;12.844;2023-01-24T00:10:26;0.60;89.00
69382;DHT22;56560;50.692;12.844;2023-01-24T00:12:52;0.60;88.50
69382;DHT22;56560;50.692;12.844;2023-01-24T00:15:17;0.60;89.00
69382;DHT22;56560;50.692;12.844;2023-01-24T00:17:43;0.60;89.20
69382;DHT22;56560;50.692;12.844;2023-01-24T00:20:09;0.50;89.20
69382;DHT22;56560;50.692;12.844;2023-01-24T00:22:35;0.60;89.60
69382;DHT22;56560;50.692;12.844;2023-01-24T00:25:00;0.60;89.50
69382;DHT22;56560;50.692;12.844;2023-01-24T00:27:26;0.60;88.90
69382;DHT22;56560;50.692;12.844;2023-01-24T00:29:52;0.60;89.20
69382;DHT22;56560;50.692;12.844;2023-01-24T00:32:17;0.70;89.30
69382;DHT22;56560;50.692;12.844;2023-01-24T00:34:43;0.80;89.00
69382;DHT22;56560;50.692;12.844;2023-01-24T00:37:09;0.80;88.50
69382;DHT22;56560;50.692;12.844;2023-01-24T00:39:34;0.80;88.20
69382;DHT22;56560;50.692;12.844;2023-01-24T00:42:00;0.80;88.70
69382;DHT22;56560;50.692;12.844;2023-01-24T00:44:25;0.80;88.70
69382;DHT22;56560;50.692;12.844;2023-01-24T00:46:52;0.70;88.30
69382;DHT22;56560;50.692;12.844;2023-01-24T00:49:17;0.70;88.50
69382;DHT22;56560;50.692;12.844;2023-01-24T00:51:43;0.70;88.40
69382;DHT22;56560;50.692;12.844;2023-01-24T00:54:09;0.60;88.00
69382;DHT22;56560;50.692;12.844;2023-01-24T00:56:34;0.60;88.30
69382;DHT22;56560;50.692;12.844;2023-01-24T00:59:00;0.50;88.70
69382;DHT22;56560;50.692;12.844;2023-01-24T01:01:26;0.40;88.60
69382;DHT22;56560;50.692;12.844;2023-01-24T01:03:55;0.40;88.30
69382;DHT22;56560;50.692;12.844;2023-01-24T01:06:21;0.40;89.30
69382;DHT22;56560;50.692;12.844;2023-01-24T01:08:46;0.40;88.80
69382;DHT22;56560;50.692;12.844;2023-01-24T01:11:12;0.50;88.50
69382;DHT22;56560;50.692;12.844;2023-01-24T01:13:38;0.40;88.60
69382;DHT22;56560;50.692;12.844;2023-01-24T01:16:15;0.40;88.80
69382;DHT22;56560;50.692;12.844;2023-01-24T01:18:41;0.30;89.80
69382;DHT22;56560;50.692;12.844;2023-01-24T01:21:09;0.30;89.10
69382;DHT22;56560;50.692;12.844;2023-01-24T01:23:36;0.30;89.10
69382;DHT22;56560;50.692;12.844;2023-01-24T01:26:04;0.30;89.10
69382;DHT22;56560;50.692;12.844;2023-01-24T01:28:31;0.40;89.30
69382;DHT22;56560;50.692;12.844;2023-01-24T01:30:57;0.50;88.90
69382;DHT22;56560;50.692;12.844;2023-01-24T01:33:22;0.50;88.20
69382;DHT22;56560;50.692;12.844;2023-01-24T01:35:49;0.40;88.30
69382;DHT22;56560;50.692;12.844;2023-01-24T01:38:15;0.40;88.50
69382;DHT22;56560;50.692;12.844;2023-01-24T01:40:42;0.40;89.00
69382;DHT22;56560;50.692;12.844;2023-01-24T01:43:13;0.50;88.80
69382;DHT22;56560;50.692;12.844;2023-01-24T01:45:45;0.50;88.30
69382;DHT22;56560;50.692;12.844;2023-01-24T01:48:31;0.40;88.60
69382;DHT22;56560;50.692;12.844;2023-01-24T01:51:19;0.50;88.60
69382;DHT22;56560;50.692;12.844;2023-01-24T01:53:55;0.50;88.70
69382;DHT22;56560;50.692;12.844;2023-01-24T01:56:32;0.50;88.90
69382;DHT22;56560;50.692;12.844;2023-01-24T01:59:03;0.50;88.50
69382;DHT22;56560;50.692;12.844;2023-01-24T02:01:31;0.50;88.60
69382;DHT22;56560;50.692;12.844;2023-01-24T02:04:07;0.60;89.00
69382;DHT22;56560;50.692;12.844;2023-01-24T02:09:12;0.70;87.90
69382;DHT22;56560;50.692;12.844;2023-01-24T02:11:39;0.70;87.80
69382;DHT22;56560;50.692;12.844;2023-01-24T02:14:09;0.80;87.90
69382;DHT22;56560;50.692;12.844;2023-01-24T02:16:54;0.80;87.80
69382;DHT22;56560;50.692;12.844;2023-01-24T02:21:58;0.90;87.60
69382;DHT22;56560;50.692;12.844;2023-01-24T02:24:38;1.00;87.10
69382;DHT22;56560;50.692;12.844;2023-01-24T02:27:06;1.00;87.00
69382;DHT22;56560;50.692;12.844;2023-01-24T02:29:31;1.00;87.00
69382;DHT22;56560;50.692;12.844;2023-01-24T02:32:02;1.00;86.80
69382;DHT22;56560;50.692;12.844;2023-01-24T02:34:30;1.10;86.40
69382;DHT22;56560;50.692;12.844;2023-01-24T02:37:14;1.10;86.20
69382;DHT22;56560;50.692;12.844;2023-01-24T02:42:30;1.20;86.20
69382;DHT22;56560;50.692;12.844;2023-01-24T02:45:09;1.20;85.70
69382;DHT22;56560;50.692;12.844;2023-01-24T02:47:40;1.20;85.60
69382;DHT22;56560;50.692;12.844;2023-01-24T02:50:09;1.20;85.70
69382;DHT22;56560;50.692;12.844;2023-01-24T02:52:35;1.10;85.60
69382;DHT22;56560;50.692;12.844;2023-01-24T02:55:19;1.10;85.90
69382;DHT22;56560;50.692;12.844;2023-01-24T02:57:45;1.10;85.80
69382;DHT22;56560;50.692;12.844;2023-01-24T03:00:29;1.20;86.20
69382;DHT22;56560;50.692;12.844;2023-01-24T03:02:55;1.20;85.90
69382;DHT22;56560;50.692;12.844;2023-01-24T03:05:21;1.20;85.20
69382;DHT22;56560;50.692;12.844;2023-01-24T03:07:46;1.10;85.80
69382;DHT22;56560;50.692;12.844;2023-01-24T03:10:15;1.10;85.50
69382;DHT22;56560;50.692;12.844;2023-01-24T03:12:41;1.10;85.40
69382;DHT22;56560;50.692;12.844;2023-01-24T03:15:26;1.20;85.60
69382;DHT22;56560;50.692;12.844;2023-01-24T03:18:11;1.20;85.70
69382;DHT22;56560;50.692;12.844;2023-01-24T03:20:55;1.20;85.00
69382;DHT22;56560;50.692;12.844;2023-01-24T03:23:39;1.00;85.10
69382;DHT22;56560;50.692;12.844;2023-01-24T03:26:24;0.90;86.00
69382;DHT22;56560;50.692;12.844;2023-01-24T03:29:09;0.90;86.10
69382;DHT22;56560;50.692;12.844;2023-01-24T03:31:53;0.90;86.00
69382;DHT22;56560;50.692;12.844;2023-01-24T03:34:37;1.00;86.00
69382;DHT22;56560;50.692;12.844;2023-01-24T03:37:16;1.10;85.70
69382;DHT22;56560;50.692;12.844;2023-01-24T03:39:42;1.10;85.30
69382;DHT22;56560;50.692;12.844;2023-01-24T03:42:26;1.00;85.40
69382;DHT22;56560;50.692;12.844;2023-01-24T03:44:53;1.10;85.50
69382;DHT22;56560;50.692;12.844;2023-01-24T03:47:18;1.10;85.50
69382;DHT22;56560;50.692;12.844;2023-01-24T03:49:44;1.10;85.20
69382;DHT22;56560;50.692;12.844;2023-01-24T03:52:28;1.10;85.20
69382;DHT22;56560;50.692;12.844;2023-01-24T03:54:55;1.10;85.30
69382;DHT22;56560;50.692;12.844;2023-01-24T03:57:21;1.10;84.90
69382;DHT22;56560;50.692;12.844;2023-01-24T03:59:47;1.00;85.20
69382;DHT22;56560;50.692;12.844;2023-01-24T04:02:13;1.10;85.10
69382;DHT22;56560;50.692;12.844;2023-01-24T04:04:39;1.10;85.00
69382;DHT22;56560;50.692;12.844;2023-01-24T04:07:23;1.10;85.10
69382;DHT22;56560;50.692;12.844;2023-01-24T04:09:49;1.10;85.50
69382;DHT22;56560;50.692;12.844;2023-01-24T04:12:14;1.10;85.10
69382;DHT22;56560;50.692;12.844;2023-01-24T04:14:40;1.20;85.00
69382;DHT22;56560;50.692;12.844;2023-01-24T04:17:05;1.20;85.00
69382;DHT22;56560;50.692;12.844;2023-01-24T04:19:31;1.20;84.70
69382;DHT22;56560;50.692;12.844;2023-01-24T04:21:56;1.20;84.80
69382;DHT22;56560;50.692;12.844;2023-01-24T04:24:23;1.20;84.90
69382;DHT22;56560;50.692;12.844;2023-01-24T04:26:49;1.30;84.50
69382;DHT22;56560;50.692;12.844;2023-01-24T04:29:14;1.20;84.50
69382;DHT22;56560;50.692;12.844;2023-01-24T04:31:40;1.20;84.40
69382;DHT22;56560;50.692;12.844;2023-01-24T04:34:06;1.20;84.50
69382;DHT22;56560;50.692;12.844;2023-01-24T04:36:32;1.20;84.80
69382;DHT22;56560;50.692;12.844;2023-01-24T04:38:57;1.20;84.80
69382;DHT22;56560;50.692;12.844;2023-01-24T04:41:23;1.20;84.70
69382;DHT22;56560;50.692;12.844;2023-01-24T04:43:49;1.30;84.70
69382;DHT22;56560;50.692;12.844;2023-01-24T04:46:14;1.20;84.30
69382;DHT22;56560;50.692;12.844;2023-01-24T04:48:40;1.20;84.60
69382;DHT22;56560;50.692;12.844;2023-01-24T04:51:05;1.20;84.60
69382;DHT22;56560;50.692;12.844;2023-01-24T04:53:31;1.20;84.70
69382;DHT22;56560;50.692;12.844;2023-01-24T04:56:02;1.20;84.60
69382;DHT22;56560;50.692;12.844;2023-01-24T04:58:28;1.10;84.60
69382;DHT22;56560;50.692;12.844;2023-01-24T05:00:53;1.20;84.70
69382;DHT22;56560;50.692;12.844;2023-01-24T05:03:19;1.10;84.60
69382;DHT22;56560;50.692;12.844;2023-01-24T05:05:49;1.10;85.00
69382;DHT22;56560;50.692;12.844;2023-01-24T05:08:15;1.10;84.90
69382;DHT22;56560;50.692;12.844;2023-01-24T05:10:40;1.10;84.90
69382;DHT22;56560;50.692;12.844;2023-01-24T05:13:06;1.10;85.20
69382;DHT22;56560;50.692;12.844;2023-01-24T05:15:31;1.10;84.80
69382;DHT22;56560;50.692;12.844;2023-01-24T05:17:57;1.10;85.00
69382;DHT22;56560;50.692;12.844;2023-01-24T05:20:23;1.20;84.90
69382;DHT22;56560;50.692;12.844;2023-01-24T05:22:48;1.20;84.90
69382;DHT22;56560;50.692;12.844;2023-01-24T05:25:17;1.10;84.50
69382;DHT22;56560;50.692;12.844;2023-01-24T05:27:43;1.10;85.00
69382;DHT22;56560;50.692;12.844;2023-01-24T05:30:10;1.00;85.20
69382;DHT22;56560;50.692;12.844;2023-01-24T05:32:36;0.80;86.10
69382;DHT22;56560;50.692;12.844;2023-01-24T05:35:02;0.80;86.60
69382;DHT22;56560;50.692;12.844;2023-01-24T05:37:28;0.80;87.00
69382;DHT22;56560;50.692;12.844;2023-01-24T05:39:54;1.00;86.60
69382;DHT22;56560;50.692;12.844;2023-01-24T05:42:19;1.00;85.90
69382;DHT22;56560;50.692;12.844;2023-01-24T05:44:45;1.10;85.50
69382;DHT22;56560;50.692;12.844;2023-01-24T05:47:10;1.10;85.60
69382;DHT22;56560;50.692;12.844;2023-01-24T05:49:36;1.10;85.60
69382;DHT22;56560;50.692;12.844;2023-01-24T05:52:02;1.10;86.20
69382;DHT22;56560;50.692;12.844;2023-01-24T05:54:28;1.10;86.20
69382;DHT22;56560;50.692;12.844;2023-01-24T05:56:53;1.10;86.20
69382;DHT22;56560;50.692;12.844;2023-01-24T05:59:19;1.10;86.60
69382;DHT22;56560;50.692;12.844;2023-01-24T06:01:45;1.10;86.20
69382;DHT22;56560;50.692;12.844;2023-01-24T06:04:11;1.10;86.40
69382;DHT22;56560;50.692;12.844;2023-01-24T06:06:37;1.10;86.10
69382;DHT22;56560;50.692;12.844;2023-01-24T06:09:08;1.10;86.30
69382;DHT22;56560;50.692;12.844;2023-01-24T06:11:34;1.10;86.40
69382;DHT22;56560;50.692;12.844;2023-01-24T06:14:00;1.10;86.40
69382;DHT22;56560;50.692;12.844;2023-01-24T06:16:26;1.10;86.80
69382;DHT22;56560;50.692;12.844;2023-01-24T06:18:53;1.10;86.70
69382;DHT22;56560;50.692;12.844;2023-01-24T06:23:54;1.10;86.70
69382;DHT22;56560;50.692;12.844;2023-01-24T06:26:20;1.10;86.50
69382;DHT22;56560;50.692;12.844;2023-01-24T06:28:46;1.10;86.70
69382;DHT22;56560;50.692;12.844;2023-01-24T06:39:38;1.00;87.00
69382;DHT22;56560;50.692;12.844;2023-01-24T06:42:04;1.00;87.70
69382;DHT22;56560;50.692;12.844;2023-01-24T06:44:30;1.10;88.00
69382;DHT22;56560;50.692;12.844;2023-01-24T06:46:56;1.10;88.20
69382;DHT22;56560;50.692;12.844;2023-01-24T06:49:22;1.20;88.20
69382;DHT22;56560;50.692;12.844;2023-01-24T06:51:51;1.20;87.50
69382;DHT22;56560;50.692;12.844;2023-01-24T06:54:17;1.10;86.40
69382;DHT22;56560;50.692;12.844;2023-01-24T06:56:43;1.10;86.10
69382;DHT22;56560;50.692;12.844;2023-01-24T06:59:09;1.10;86.30
69382;DHT22;56560;50.692;12.844;2023-01-24T07:01:34;1.10;86.60
69382;DHT22;56560;50.692;12.844;2023-01-24T07:04:00;1.10;86.30
69382;DHT22;56560;50.692;12.844;2023-01-24T07:06:25;1.20;86.10
69382;DHT22;56560;50.692;12.844;2023-01-24T07:08:52;1.20;86.60
69382;DHT22;56560;50.692;12.844;2023-01-24T07:11:18;1.10;86.40
69382;DHT22;56560;50.692;12.844;2023-01-24T07:13:44;1.10;86.40
69382;DHT22;56560;50.692;12.844;2023-01-24T07:16:09;1.00;86.00
69382;DHT22;56560;50.692;12.844;2023-01-24T07:18:35;0.90;86.30
69382;DHT22;56560;50.692;12.844;2023-01-24T07:21:05;0.90;86.60
69382;DHT22;56560;50.692;12.844;2023-01-24T07:23:31;1.00;86.60
69382;DHT22;56560;50.692;12.844;2023-01-24T07:25:59;0.90;86.50
69382;DHT22;56560;50.692;12.844;2023-01-24T07:28:24;0.90;86.30
69382;DHT22;56560;50.692;12.844;2023-01-24T07:30:52;0.90;86.20
69382;DHT22;56560;50.692;12.844;2023-01-24T07:33:18;0.90;86.20
69382;DHT22;56560;50.692;12.844;2023-01-24T07:35:44;1.00;87.00
69382;DHT22;56560;50.692;12.844;2023-01-24T07:38:10;1.10;85.60
69382;DHT22;56560;50.692;12.844;2023-01-24T07:40:37;1.10;85.70
69382;DHT22;56560;50.692;12.844;2023-01-24T07:43:03;1.10;85.70
69382;DHT22;56560;50.692;12.844;2023-01-24T07:45:29;1.10;85.80
69382;DHT22;56560;50.692;12.844;2023-01-24T07:47:59;1.10;85.30
69382;DHT22;56560;50.692;12.844;2023-01-24T07:50:25;1.10;85.70
69382;DHT22;56560;50.692;12.844;2023-01-24T07:52:55;1.10;85.60
69382;DHT22;56560;50.692;12.844;2023-01-24T07:55:21;1.20;85.10
69382;DHT22;56560;50.692;12.844;2023-01-24T07:57:47;1.10;84.90
69382;DHT22;56560;50.692;12.844;2023-01-24T08:00:13;1.00;85.60
69382;DHT22;56560;50.692;12.844;2023-01-24T08:02:40;1.00;85.20
69382;DHT22;56560;50.692;12.844;2023-01-24T08:05:07;0.90;85.60
69382;DHT22;56560;50.692;12.844;2023-01-24T08:07:32;1.00;85.10
69382;DHT22;56560;50.692;12.844;2023-01-24T08:10:03;1.10;84.80
69382;DHT22;56560;50.692;12.844;2023-01-24T08:12:29;1.10;84.60
69382;DHT22;56560;50.692;12.844;2023-01-24T08:14:55;1.10;85.10
69382;DHT22;56560;50.692;12.844;2023-01-24T08:17:20;1.20;84.30
69382;DHT22;56560;50.692;12.844;2023-01-24T08:19:46;1.20;84.00
69382;DHT22;56560;50.692;12.844;2023-01-24T08:22:12;1.30;84.20
69382;DHT22;56560;50.692;12.844;2023-01-24T08:24:37;1.40;84.40
69382;DHT22;56560;50.692;12.844;2023-01-24T08:27:03;1.40;83.50
69382;DHT22;56560;50.692;12.844;2023-01-24T08:29:29;1.40;83.90
69382;DHT22;56560;50.692;12.844;2023-01-24T08:31:55;1.50;83.80
69382;DHT22;56560;50.692;12.844;2023-01-24T08:34:22;1.60;83.30
69382;DHT22;56560;50.692;12.844;2023-01-24T08:36:48;1.70;82.50
69382;DHT22;56560;50.692;12.844;2023-01-24T08:39:13;1.70;82.10
69382;DHT22;56560;50.692;12.844;2023-01-24T08:41:40;1.60;82.50
69382;DHT22;56560;50.692;12.844;2023-01-24T08:44:06;1.60;82.80
69382;DHT22;56560;50.692;12.844;2023-01-24T08:46:32;1.60;82.40
69382;DHT22;56560;50.692;12.844;2023-01-24T08:48:58;1.60;82.40
69382;DHT22;56560;50.692;12.844;2023-01-24T08:51:24;1.60;81.90
69382;DHT22;56560;50.692;12.844;2023-01-24T08:53:49;1.50;83.20
69382;DHT22;56560;50.692;12.844;2023-01-24T08:56:15;1.60;83.70
69382;DHT22;56560;50.692;12.844;2023-01-24T08:58:41;1.50;83.40
69382;DHT22;56560;50.692;12.844;2023-01-24T09:01:08;1.50;84.20
69382;DHT22;56560;50.692;12.844;2023-01-24T09:03:34;1.60;83.30
69382;DHT22;56560;50.692;12.844;2023-01-24T09:06:00;1.60;83.30
69382;DHT22;56560;50.692;12.844;2023-01-24T09:08:26;1.50;83.40
69382;DHT22;56560;50.692;12.844;2023-01-24T09:10:52;1.60;83.20
69382;DHT22;56560;50.692;12.844;2023-01-24T09:13:18;1.60;83.00
69382;DHT22;56560;50.692;12.844;2023-01-24T09:15:43;1.60;83.00
69382;DHT22;56560;50.692;12.844;2023-01-24T09:18:09;1.60;83.70
69382;DHT22;56560;50.692;12.844;2023-01-24T09:20:35;1.60;83.00
69382;DHT22;56560;50.692;12.844;2023-01-24T09:23:07;1.60;82.50
69382;DHT22;56560;50.692;12.844;2023-01-24T09:25:34;1.50;83.20
69382;DHT22;56560;50.692;12.844;2023-01-24T09:27:59;1.60;82.80
69382;DHT22;56560;50.692;12.844;2023-01-24T09:30:25;1.60;81.80
69382;DHT22;56560;50.692;12.844;2023-01-24T09:32:50;1.50;82.80
69382;DHT22;56560;50.692;12.844;2023-01-24T09:35:16;1.50;82.50
69382;DHT22;56560;50.692;12.844;2023-01-24T09:37:41;1.60;82.90
69382;DHT22;56560;50.692;12.844;2023-01-24T09:40:18;1.80;81.60
69382;DHT22;56560;50.692;12.844;2023-01-24T09:45:34;2.00;81.40
69382;DHT22;56560;50.692;12.844;2023-01-24T09:48:03;2.00;81.30
69382;DHT22;56560;50.692;12.844;2023-01-24T09:50:51;2.10;80.80
69382;DHT22;56560;50.692;12.844;2023-01-24T09:53:26;2.10;80.30
69382;DHT22;56560;50.692;12.844;2023-01-24T09:55:55;2.10;80.60
69382;DHT22;56560;50.692;12.844;2023-01-24T09:58:30;2.20;80.70
69382;DHT22;56560;50.692;12.844;2023-01-24T10:01:08;2.20;80.00
69382;DHT22;56560;50.692;12.844;2023-01-24T10:03:36;2.30;80.20
69382;DHT22;56560;50.692;12.844;2023-01-24T10:06:24;2.30;80.40
69382;DHT22;56560;50.692;12.844;2023-01-24T10:12:27;2.20;80.50
69382;DHT22;56560;50.692;12.844;2023-01-24T10:23:24;2.40;79.20
69382;DHT22;56560;50.692;12.844;2023-01-24T10:26:14;2.50;78.70
69382;DHT22;56560;50.692;12.844;2023-01-24T10:28:49;2.50;79.00
69382;DHT22;56560;50.692;12.844;2023-01-24T10:31:28;2.70;78.60
69382;DHT22;56560;50.692;12.844;2023-01-24T10:34:25;2.60;78.10
69382;DHT22;56560;50.692;12.844;2023-01-24T10:36:58;2.40;79.20
69382;DHT22;56560;50.692;12.844;2023-01-24T10:39:26;2.50;79.00
69382;DHT22;56560;50.692;12.844;2023-01-24T10:41:53;2.70;78.70
69382;DHT22;56560;50.692;12.844;2023-01-24T10:44:28;2.80;78.10
69382;DHT22;56560;50.692;12.844;2023-01-24T10:49:41;3.00;77.70
69382;DHT22;56560;50.692;12.844;2023-01-24T10:52:10;3.00;77.10
69382;DHT22;56560;50.692;12.844;2023-01-24T10:54:51;3.10;77.30
69382;DHT22;56560;50.692;12.844;2023-01-24T11:02:40;3.30;77.30
69382;DHT22;56560;50.692;12.844;2023-01-24T11:05:12;3.40;76.10
69382;DHT22;56560;50.692;12.844;2023-01-24T11:07:48;3.30;76.60
69382;DHT22;56560;50.692;12.844;2023-01-24T11:10:17;3.30;77.00
69382;DHT22;56560;50.692;12.844;2023-01-24T11:12:55;3.40;75.70
69382;DHT22;56560;50.692;12.844;2023-01-24T11:15:29;3.40;76.10
69382;DHT22;56560;50.692;12.844;2023-01-24T11:18:13;3.40;76.40
69382;DHT22;56560;50.692;12.844;2023-01-24T11:20:42;3.50;76.00
69382;DHT22;56560;50.692;12.844;2023-01-24T11:23:15;3.40;75.80
69382;DHT22;56560;50.692;12.844;2023-01-24T11:25:55;3.50;75.90
69382;DHT22;56560;50.692;12.844;2023-01-24T11:28:29;3.50;75.70
69382;DHT22;56560;50.692;12.844;2023-01-24T11:30:58;3.50;75.90
69382;DHT22;56560;50.692;12.844;2023-01-24T11:36:08;3.30;76.70
69382;DHT22;56560;50.692;12.844;2023-01-24T11:38:41;3.30;76.50
69382;DHT22;56560;50.692;12.844;2023-01-24T12:00:49;3.30;76.60
69382;DHT22;56560;50.692;12.844;2023-01-24T12:22:22;2.80;79.00
69382;DHT22;56560;50.692;12.844;2023-01-24T12:24:54;2.70;79.10
69382;DHT22;56560;50.692;12.844;2023-01-24T12:27:23;2.80;78.90
69382;DHT22;56560;50.692;12.844;2023-01-24T12:30:01;2.70;79.20
69382;DHT22;56560;50.692;12.844;2023-01-24T12:32:47;2.70;79.50
69382;DHT22;56560;50.692;12.844;2023-01-24T12:38:10;2.80;78.80
69382;DHT22;56560;50.692;12.844;2023-01-24T12:46:28;3.10;78.10
69382;DHT22;56560;50.692;12.844;2023-01-24T12:51:35;3.00;78.80
69382;DHT22;56560;50.692;12.844;2023-01-24T12:54:19;3.00;79.10
69382;DHT22;56560;50.692;12.844;2023-01-24T12:59:32;2.80;80.50
69382;DHT22;56560;50.692;12.844;2023-01-24T13:05:47;2.60;81.20
69382;DHT22;56560;50.692;12.844;2023-01-24T13:10:58;2.50;82.50
69382;DHT22;56560;50.692;12.844;2023-01-24T13:13:33;2.50;81.90
69382;DHT22;56560;50.692;12.844;2023-01-24T13:22:10;2.40;83.00
69382;DHT22;56560;50.692;12.844;2023-01-24T13:24:51;2.40;82.70
69382;DHT22;56560;50.692;12.844;2023-01-24T13:30:16;2.40;82.50
69382;DHT22;56560;50.692;12.844;2023-01-24T13:32:43;2.30;83.10
69382;DHT22;56560;50.692;12.844;2023-01-24T13:35:18;2.20;83.80
69382;DHT22;56560;50.692;12.844;2023-01-24T13:37:57;2.10;83.60
69382;DHT22;56560;50.692;12.844;2023-01-24T13:40:30;2.00;84.60
69382;DHT22;56560;50.692;12.844;2023-01-24T13:43:01;2.00;84.60
69382;DHT22;56560;50.692;12.844;2023-01-24T13:47:56;2.00;84.70
69382;DHT22;56560;50.692;12.844;2023-01-24T13:50:29;2.00;84.70
69382;DHT22;56560;50.692;12.844;2023-01-24T13:52:57;2.00;84.30
69382;DHT22;56560;50.692;12.844;2023-01-24T14:00:29;1.90;84.80
69382;DHT22;56560;50.692;12.844;2023-01-24T14:06:06;2.00;84.70
69382;DHT22;56560;50.692;12.844;2023-01-24T14:08:36;1.80;85.10
69382;DHT22;56560;50.692;12.844;2023-01-24T14:21:52;1.70;86.40
69382;DHT22;56560;50.692;12.844;2023-01-24T14:24:33;1.70;85.80
69382;DHT22;56560;50.692;12.844;2023-01-24T14:27:21;1.50;87.00
69382;DHT22;56560;50.692;12.844;2023-01-24T14:29:51;1.60;87.10
69382;DHT22;56560;50.692;12.844;2023-01-24T14:32:35;1.60;86.80
69382;DHT22;56560;50.692;12.844;2023-01-24T14:35:15;1.60;86.40
69382;DHT22;56560;50.692;12.844;2023-01-24T14:37:46;1.60;86.80
69382;DHT22;56560;50.692;12.844;2023-01-24T14:42:49;1.50;86.00
69382;DHT22;56560;50.692;12.844;2023-01-24T14:45:25;1.40;86.10
69382;DHT22;56560;50.692;12.844;2023-01-24T14:47:52;1.50;86.00
69382;DHT22;56560;50.692;12.844;2023-01-24T14:50:27;1.60;85.90
69382;DHT22;56560;50.692;12.844;2023-01-24T14:52:54;1.60;85.50
69382;DHT22;56560;50.692;12.844;2023-01-24T14:55:36;1.60;85.20
69382;DHT22;56560;50.692;12.844;2023-01-24T14:58:33;1.70;85.60
69382;DHT22;56560;50.692;12.844;2023-01-24T15:01:00;1.70;85.10
69382;DHT22;56560;50.692;12.844;2023-01-24T15:03:29;1.70;85.30
69382;DHT22;56560;50.692;12.844;2023-01-24T15:06:03;1.70;85.00
69382;DHT22;56560;50.692;12.844;2023-01-24T15:08:30;1.60;85.10
69382;DHT22;56560;50.692;12.844;2023-01-24T15:10:59;1.50;85.70
69382;DHT22;56560;50.692;12.844;2023-01-24T15:13:33;1.50;85.60
69382;DHT22;56560;50.692;12.844;2023-01-24T15:16:00;1.50;85.20
69382;DHT22;56560;50.692;12.844;2023-01-24T15:20:54;1.30;85.90
69382;DHT22;56560;50.692;12.844;2023-01-24T15:23:30;1.40;86.80
69382;DHT22;56560;50.692;12.844;2023-01-24T15:25:56;1.40;86.40
69382;DHT22;56560;50.692;12.844;2023-01-24T15:28:31;1.40;86.40
69382;DHT22;56560;50.692;12.844;2023-01-24T15:30:59;1.40;86.90
69382;DHT22;56560;50.692;12.844;2023-01-24T15:33:39;1.30;87.70
69382;DHT22;56560;50.692;12.844;2023-01-24T15:36:29;1.30;87.40
69382;DHT22;56560;50.692;12.844;2023-01-24T15:38:57;1.30;86.90
69382;DHT22;56560;50.692;12.844;2023-01-24T15:41:30;1.30;87.40
69382;DHT22;56560;50.692;12.844;2023-01-24T15:44:18;1.30;87.20
69382;DHT22;56560;50.692;12.844;2023-01-24T15:46:45;1.30;87.30
69382;DHT22;56560;50.692;12.844;2023-01-24T15:49:40;1.20;86.40
69382;DHT22;56560;50.692;12.844;2023-01-24T15:52:21;1.20;86.80
69382;DHT22;56560;50.692;12.844;2023-01-24T15:54:50;1.20;87.00
69382;DHT22;56560;50.692;12.844;2023-01-24T15:57:21;1.20;87.00
69382;DHT22;56560;50.692;12.844;2023-01-24T15:59:52;1.20;86.90
69382;DHT22;56560;50.692;12.844;2023-01-24T16:02:18;1.10;87.40
69382;DHT22;56560;50.692;12.844;2023-01-24T16:04:44;1.20;87.80
69382;DHT22;56560;50.692;12.844;2023-01-24T16:07:10;1.20;87.80
69382;DHT22;56560;50.692;12.844;2023-01-24T16:09:36;1.30;87.10
69382;DHT22;56560;50.692;12.844;2023-01-24T16:12:02;1.30;87.40
69382;DHT22;56560;50.692;12.844;2023-01-24T16:14:31;1.30;87.10
69382;DHT22;56560;50.692;12.844;2023-01-24T16:16:59;1.40;86.90
69382;DHT22;56560;50.692;12.844;2023-01-24T16:19:26;1.40;86.60
69382;DHT22;56560;50.692;12.844;2023-01-24T16:21:52;1.40;86.90
69382;DHT22;56560;50.692;12.844;2023-01-24T16:24:18;1.40;86.70
69382;DHT22;56560;50.692;12.844;2023-01-24T16:26:47;1.40;86.60
69382;DHT22;56560;50.692;12.844;2023-01-24T16:29:25;1.40;86.40
69382;DHT22;56560;50.692;12.844;2023-01-24T16:31:53;1.50;86.10
69382;DHT22;56560;50.692;12.844;2023-01-24T16:34:18;1.30;86.10
69382;DHT22;56560;50.692;12.844;2023-01-24T16:36:44;1.30;86.80
69382;DHT22;56560;50.692;12.844;2023-01-24T16:39:19;1.30;86.70
69382;DHT22;56560;50.692;12.844;2023-01-24T16:41:49;1.30;86.60
69382;DHT22;56560;50.692;12.844;2023-01-24T16:44:18;1.40;86.30
69382;DHT22;56560;50.692;12.844;2023-01-24T16:46:49;1.30;86.00
69382;DHT22;56560;50.692;12.844;2023-01-24T16:49:15;1.20;86.10
69382;DHT22;56560;50.692;12.844;2023-01-24T16:51:43;1.20;87.10
69382;DHT22;56560;50.692;12.844;2023-01-24T16:54:09;1.10;86.60
69382;DHT22;56560;50.692;12.844;2023-01-24T16:56:35;1.00;87.10
69382;DHT22;56560;50.692;12.844;2023-01-24T16:59:00;1.10;87.20
69382;DHT22;56560;50.692;12.844;2023-01-24T17:01:26;1.10;87.10
69382;DHT22;56560;50.692;12.844;2023-01-24T17:03:52;1.10;87.20
69382;DHT22;56560;50.692;12.844;2023-01-24T17:06:18;1.00;87.20
69382;DHT22;56560;50.692;12.844;2023-01-24T17:08:49;1.00;87.10
69382;DHT22;56560;50.692;12.844;2023-01-24T17:11:15;1.00;87.50
69382;DHT22;56560;50.692;12.844;2023-01-24T17:13:42;1.00;87.20
69382;DHT22;56560;50.692;12.844;2023-01-24T17:16:09;0.90;87.10
69382;DHT22;56560;50.692;12.844;2023-01-24T17:18:39;1.00;87.30
69382;DHT22;56560;50.692;12.844;2023-01-24T17:21:13;0.90;87.00
69382;DHT22;56560;50.692;12.844;2023-01-24T17:23:39;0.90;87.20
69382;DHT22;56560;50.692;12.844;2023-01-24T17:26:12;0.90;87.40
69382;DHT22;56560;50.692;12.844;2023-01-24T17:28:39;0.90;86.80
69382;DHT22;56560;50.692;12.844;2023-01-24T17:31:12;0.90;86.90
69382;DHT22;56560;50.692;12.844;2023-01-24T17:33:38;0.80;86.90
69382;DHT22;56560;50.692;12.844;2023-01-24T17:36:04;0.90;87.30
69382;DHT22;56560;50.692;12.844;2023-01-24T17:38:30;0.90;86.90
69382;DHT22;56560;50.692;12.844;2023-01-24T17:40:56;0.90;87.60
69382;DHT22;56560;50.692;12.844;2023-01-24T17:43:22;0.90;86.70
69382;DHT22;56560;50.692;12.844;2023-01-24T17:45:55;0.90;86.70
69382;DHT22;56560;50.692;12.844;2023-01-24T17:48:21;0.90;87.10
69382;DHT22;56560;50.692;12.844;2023-01-24T17:50:48;1.00;87.10
69382;DHT22;56560;50.692;12.844;2023-01-24T17:53:14;1.00;86.60
69382;DHT22;56560;50.692;12.844;2023-01-24T17:55:40;1.00;86.50
69382;DHT22;56560;50.692;12.844;2023-01-24T17:58:06;1.00;86.10
69382;DHT22;56560;50.692;12.844;2023-01-24T18:00:32;1.10;86.20
69382;DHT22;56560;50.692;12.844;2023-01-24T18:02:58;1.00;86.10